sensor_id;sensor_type;location;lat;lon;timestamp;pressure;altitude;pressure_sealevel;temperature;humidity
78198;BME280;67472;51.554;7.812;2023-07-20T00:02:38;100717.69;;;16.50;100.00
78198;BME280;67472;51.554;7.812;2023-07-20T00:05:25;100728.03;;;16.45;100.00
78198;BME280;67472;51.554;7.812;2023-07-20T00:08:11;100734.22;;;16.45;100.00
78198;BME280;67472;51.554;7.812;2023-07-20T00:10:57;100728.38;;;16.50;100.00
78198;BME280;67472;51.554;7.812;2023-07-20T00:13:44;100737.91;;;16.60;100.00
78198;BME280;67472;51.554;7.812;2023-07-20T00:16:31;100742.75;;;16.57;100.00
78198;BME280;67472;51.554;7.812;2023-07-20T00:19:19;100745.44;;;16.65;100.00
78198;BME280;67472;51.554;7.812;2023-07-20T00:22:06;100748.25;;;16.63;100.00
78198;BME280;67472;51.554;7.812;2023-07-20T00:24:52;100755.13;;;16.74;100.00
78198;BME280;67472;51.554;7.812;2023-07-20T00:27:38;100740.94;;;16.73;100.00
78198;BME280;67472;51.554;7.812;2023-07-20T00:30:25;100742.59;;;16.66;100.00
78198;BME280;67472;51.554;7.812;2023-07-20T00:33:11;100736.78;;;16.63;100.00
78198;BME280;67472;51.554;7.812;2023-07-20T00:35:59;100740.25;;;16.55;100.00
78198;BME280;67472;51.554;7.812;2023-07-20T00:38:46;100735.94;;;16.62;100.00
78198;BME280;67472;51.554;7.812;2023-07-20T00:41:32;100737.94;;;16.68;100.00
78198;BME280;67472;51.554;7.812;2023-07-20T00:44:18;100732.75;;;16.67;100.00
78198;BME280;67472;51.554;7.812;2023-07-20T00:47:06;100731.97;;;16.82;100.00
78198;BME280;67472;51.554;7.812;2023-07-20T00:49:53;100729.09;;;16.68;100.00
78198;BME280;67472;51.554;7.812;2023-07-20T00:52:41;100725.09;;;16.64;100.00
78198;BME280;67472;51.554;7.812;2023-07-20T00:55:29;100731.25;;;16.56;100.00
78198;BME280;67472;51.554;7.812;2023-07-20T00:58:16;100733.91;;;16.56;100.00
78198;BME280;67472;51.554;7.812;2023-07-20T01:01:02;100737.75;;;16.54;100.00
78198;BME280;67472;51.554;7.812;2023-07-20T01:03:49;100738.22;;;16.57;100.00
78198;BME280;67472;51.554;7.812;2023-07-20T01:06:41;100740.91;;;16.57;100.00
78198;BME280;67472;51.554;7.812;2023-07-20T01:09:38;100732.91;;;16.57;100.00
78198;BME280;67472;51.554;7.812;2023-07-20T01:12:28;100733.91;;;16.56;100.00
78198;BME280;67472;51.554;7.812;2023-07-20T01:15:16;100721.25;;;16.66;100.00
78198;BME280;67472;51.554;7.812;2023-07-20T01:18:02;100720.91;;;16.69;100.00
78198;BME280;67472;51.554;7.812;2023-07-20T01:20:49;100712.78;;;16.71;100.00
78198;BME280;67472;51.554;7.812;2023-07-20T01:24:05;100712.09;;;16.69;100.00
78198;BME280;67472;51.554;7.812;2023-07-20T01:27:16;100703.09;;;16.70;100.00
78198;BME280;67472;51.554;7.812;2023-07-20T01:30:33;100694.44;;;16.76;100.00
78198;BME280;67472;51.554;7.812;2023-07-20T01:33:25;100695.78;;;16.80;100.00
78198;BME280;67472;51.554;7.812;2023-07-20T01:36:19;100691.94;;;16.82;100.00
78198;BME280;67472;51.554;7.812;2023-07-20T01:39:08;100682.41;;;16.72;100.00
78198;BME280;67472;51.554;7.812;2023-07-20T01:41:57;100677.75;;;16.74;100.00
78198;BME280;67472;51.554;7.812;2023-07-20T01:44:43;100679.75;;;16.72;100.00
78198;BME280;67472;51.554;7.812;2023-07-20T01:47:29;100675.09;;;16.66;100.00
78198;BME280;67472;51.554;7.812;2023-07-20T01:50:20;100675.91;;;16.66;100.00
78198;BME280;67472;51.554;7.812;2023-07-20T01:53:06;100676.59;;;16.68;100.00
78198;BME280;67472;51.554;7.812;2023-07-20T01:55:52;100669.91;;;16.56;100.00
78198;BME280;67472;51.554;7.812;2023-07-20T01:58:39;100672.72;;;16.55;100.00
78198;BME280;67472;51.554;7.812;2023-07-20T02:01:25;100677.06;;;16.56;100.00
78198;BME280;67472;51.554;7.812;2023-07-20T02:04:13;100672.72;;;16.55;100.00
78198;BME280;67472;51.554;7.812;2023-07-20T02:07:01;100665.41;;;16.57;100.00
78198;BME280;67472;51.554;7.812;2023-07-20T02:09:47;100664.25;;;16.59;100.00
78198;BME280;67472;51.554;7.812;2023-07-20T02:12:35;100665.25;;;16.66;100.00
78198;BME280;67472;51.554;7.812;2023-07-20T02:15:22;100652.56;;;16.60;100.00
78198;BME280;67472;51.554;7.812;2023-07-20T02:18:10;100648.25;;;16.59;100.00
78198;BME280;67472;51.554;7.812;2023-07-20T02:20:56;100651.06;;;16.58;100.00
78198;BME280;67472;51.554;7.812;2023-07-20T02:23:45;100653.88;;;16.48;100.00
78198;BME280;67472;51.554;7.812;2023-07-20T02:26:31;100652.03;;;16.49;100.00
78198;BME280;67472;51.554;7.812;2023-07-20T02:29:17;100646.06;;;16.55;100.00
78198;BME280;67472;51.554;7.812;2023-07-20T02:32:05;100648.38;;;16.50;100.00
78198;BME280;67472;51.554;7.812;2023-07-20T02:34:53;100648.88;;;16.45;100.00
78198;BME280;67472;51.554;7.812;2023-07-20T02:37:38;100659.06;;;16.58;100.00
78198;BME280;67472;51.554;7.812;2023-07-20T02:40:26;100651.56;;;16.61;100.00
78198;BME280;67472;51.554;7.812;2023-07-20T02:43:12;100644.09;;;16.57;100.00
78198;BME280;67472;51.554;7.812;2023-07-20T02:45:58;100641.53;;;16.47;100.00
78198;BME280;67472;51.554;7.812;2023-07-20T02:48:45;100648.03;;;16.53;100.00
78198;BME280;67472;51.554;7.812;2023-07-20T02:51:31;100654.53;;;16.50;100.00
78198;BME280;67472;51.554;7.812;2023-07-20T02:54:17;100658.38;;;16.48;100.00
78198;BME280;67472;51.554;7.812;2023-07-20T02:57:07;100666.88;;;16.51;100.00
78198;BME280;67472;51.554;7.812;2023-07-20T02:59:54;100666.22;;;16.57;100.00
78198;BME280;67472;51.554;7.812;2023-07-20T03:02:41;100672.41;;;16.58;100.00
78198;BME280;67472;51.554;7.812;2023-07-20T03:05:27;100675.41;;;16.55;100.00
78198;BME280;67472;51.554;7.812;2023-07-20T03:08:14;100692.09;;;16.57;100.00
78198;BME280;67472;51.554;7.812;2023-07-20T03:11:00;100697.88;;;16.52;100.00
78198;BME280;67472;51.554;7.812;2023-07-20T03:13:49;100697.53;;;16.47;100.00
78198;BME280;67472;51.554;7.812;2023-07-20T03:16:36;100718.22;;;16.45;100.00
78198;BME280;67472;51.554;7.812;2023-07-20T03:19:22;100720.81;;;16.29;100.00
78198;BME280;67472;51.554;7.812;2023-07-20T03:22:09;100727.97;;;16.28;100.00
78198;BME280;67472;51.554;7.812;2023-07-20T03:24:55;100731.97;;;16.24;100.00
78198;BME280;67472;51.554;7.812;2023-07-20T03:27:42;100745.09;;;16.18;100.00
78198;BME280;67472;51.554;7.812;2023-07-20T03:30:31;100741.94;;;16.14;100.00
78198;BME280;67472;51.554;7.812;2023-07-20T03:33:17;100758.72;;;16.07;100.00
78198;BME280;67472;51.554;7.812;2023-07-20T03:36:07;100764.03;;;15.99;100.00
78198;BME280;67472;51.554;7.812;2023-07-20T03:38:54;100777.66;;;15.96;100.00
78198;BME280;67472;51.554;7.812;2023-07-20T03:41:41;100789.72;;;15.82;100.00
78198;BME280;67472;51.554;7.812;2023-07-20T03:44:29;100782.38;;;15.76;100.00
78198;BME280;67472;51.554;7.812;2023-07-20T03:47:17;100795.69;;;15.76;100.00
78198;BME280;67472;51.554;7.812;2023-07-20T03:50:04;100792.78;;;15.61;100.00
78198;BME280;67472;51.554;7.812;2023-07-20T03:52:53;100808.06;;;15.59;100.00
78198;BME280;67472;51.554;7.812;2023-07-20T03:55:39;100813.56;;;15.58;100.00
78198;BME280;67472;51.554;7.812;2023-07-20T03:58:26;100828.34;;;15.52;100.00
78198;BME280;67472;51.554;7.812;2023-07-20T04:01:13;100832.13;;;15.50;100.00
78198;BME280;67472;51.554;7.812;2023-07-20T04:04:05;100835.63;;;15.50;100.00
78198;BME280;67472;51.554;7.812;2023-07-20T04:06:51;100845.28;;;15.34;100.00
78198;BME280;67472;51.554;7.812;2023-07-20T04:09:38;100855.97;;;15.42;100.00
78198;BME280;67472;51.554;7.812;2023-07-20T04:12:26;100872.06;;;15.50;100.00
78198;BME280;67472;51.554;7.812;2023-07-20T04:15:13;100883.72;;;15.49;100.00
78198;BME280;67472;51.554;7.812;2023-07-20T04:17:59;100890.28;;;15.45;100.00
78198;BME280;67472;51.554;7.812;2023-07-20T04:20:48;100893.25;;;15.42;100.00
78198;BME280;67472;51.554;7.812;2023-07-20T04:23:34;100900.19;;;15.35;100.00
78198;BME280;67472;51.554;7.812;2023-07-20T04:26:22;100909.81;;;15.36;100.00
78198;BME280;67472;51.554;7.812;2023-07-20T04:29:09;100911.97;;;15.32;100.00
78198;BME280;67472;51.554;7.812;2023-07-20T04:31:59;100910.84;;;15.35;100.00
78198;BME280;67472;51.554;7.812;2023-07-20T04:34:47;100926.09;;;15.33;100.00
78198;BME280;67472;51.554;7.812;2023-07-20T04:37:36;100936.59;;;15.34;100.00
78198;BME280;67472;51.554;7.812;2023-07-20T04:40:22;100942.00;;;15.24;100.00
78198;BME280;67472;51.554;7.812;2023-07-20T04:43:09;100947.69;;;15.29;100.00
78198;BME280;67472;51.554;7.812;2023-07-20T04:45:56;100956.94;;;15.35;100.00
78198;BME280;67472;51.554;7.812;2023-07-20T04:48:43;100968.94;;;15.39;100.00
78198;BME280;67472;51.554;7.812;2023-07-20T04:51:29;100977.03;;;15.47;100.00
78198;BME280;67472;51.554;7.812;2023-07-20T04:54:18;100991.88;;;15.50;100.00
78198;BME280;67472;51.554;7.812;2023-07-20T04:57:10;100994.94;;;15.55;100.00
78198;BME280;67472;51.554;7.812;2023-07-20T05:00:07;101002.06;;;15.54;100.00
78198;BME280;67472;51.554;7.812;2023-07-20T05:02:56;101000.94;;;15.57;100.00
78198;BME280;67472;51.554;7.812;2023-07-20T05:05:47;101004.97;;;15.61;100.00
78198;BME280;67472;51.554;7.812;2023-07-20T05:08:34;101018.06;;;15.72;100.00
78198;BME280;67472;51.554;7.812;2023-07-20T05:11:22;101023.09;;;15.75;100.00
78198;BME280;67472;51.554;7.812;2023-07-20T05:14:10;101026.91;;;15.72;100.00
78198;BME280;67472;51.554;7.812;2023-07-20T05:16:59;101032.91;;;15.74;100.00
78198;BME280;67472;51.554;7.812;2023-07-20T05:19:45;101032.59;;;15.77;100.00
78198;BME280;67472;51.554;7.812;2023-07-20T05:22:32;101040.91;;;15.74;100.00
78198;BME280;67472;51.554;7.812;2023-07-20T05:25:19;101048.25;;;15.63;100.00
78198;BME280;67472;51.554;7.812;2023-07-20T05:28:09;101055.88;;;15.58;100.00
78198;BME280;67472;51.554;7.812;2023-07-20T05:30:56;101067.16;;;15.69;100.00
78198;BME280;67472;51.554;7.812;2023-07-20T05:33:44;101091.88;;;15.79;100.00
78198;BME280;67472;51.554;7.812;2023-07-20T05:36:31;101093.03;;;15.77;100.00
78198;BME280;67472;51.554;7.812;2023-07-20T05:39:28;101090.72;;;15.64;100.00
78198;BME280;67472;51.554;7.812;2023-07-20T05:42:15;101094.53;;;15.79;100.00
78198;BME280;67472;51.554;7.812;2023-07-20T05:45:04;101108.72;;;15.98;100.00
78198;BME280;67472;51.554;7.812;2023-07-20T05:47:53;101114.00;;;16.43;100.00
78198;BME280;67472;51.554;7.812;2023-07-20T05:50:42;101124.25;;;16.73;100.00
78198;BME280;67472;51.554;7.812;2023-07-20T05:53:29;101118.00;;;16.82;100.00
78198;BME280;67472;51.554;7.812;2023-07-20T05:56:15;101099.78;;;17.03;100.00
78198;BME280;67472;51.554;7.812;2023-07-20T05:59:02;101072.53;;;16.91;100.00
78198;BME280;67472;51.554;7.812;2023-07-20T06:01:50;101051.88;;;16.68;100.00
78198;BME280;67472;51.554;7.812;2023-07-20T06:04:36;101041.06;;;16.34;100.00
78198;BME280;67472;51.554;7.812;2023-07-20T06:07:23;101026.19;;;16.23;100.00
78198;BME280;67472;51.554;7.812;2023-07-20T06:10:10;101020.31;;;16.20;100.00
78198;BME280;67472;51.554;7.812;2023-07-20T06:12:59;101021.66;;;16.59;100.00
78198;BME280;67472;51.554;7.812;2023-07-20T06:15:55;101027.69;;;16.69;100.00
78198;BME280;67472;51.554;7.812;2023-07-20T06:18:43;101027.69;;;16.69;100.00
78198;BME280;67472;51.554;7.812;2023-07-20T06:21:30;101022.44;;;16.77;100.00
78198;BME280;67472;51.554;7.812;2023-07-20T06:24:25;101009.41;;;16.74;100.00
78198;BME280;67472;51.554;7.812;2023-07-20T06:27:38;101000.91;;;16.79;100.00
78198;BME280;67472;51.554;7.812;2023-07-20T06:30:25;101006.56;;;16.76;100.00
78198;BME280;67472;51.554;7.812;2023-07-20T06:33:14;100999.97;;;16.88;100.00
78198;BME280;67472;51.554;7.812;2023-07-20T06:36:17;100989.75;;;16.83;100.00
78198;BME280;67472;51.554;7.812;2023-07-20T06:39:20;100986.75;;;16.86;100.00
78198;BME280;67472;51.554;7.812;2023-07-20T06:42:21;100972.06;;;16.74;100.00
78198;BME280;67472;51.554;7.812;2023-07-20T06:45:09;100965.25;;;16.80;100.00
78198;BME280;67472;51.554;7.812;2023-07-20T06:48:10;100950.00;;;16.72;100.00
78198;BME280;67472;51.554;7.812;2023-07-20T06:50:58;100961.50;;;16.65;100.00
78198;BME280;67472;51.554;7.812;2023-07-20T06:53:54;100966.84;;;16.73;100.00
78198;BME280;67472;51.554;7.812;2023-07-20T06:56:48;100964.41;;;16.79;100.00
78198;BME280;67472;51.554;7.812;2023-07-20T06:59:48;100963.91;;;16.84;100.00
78198;BME280;67472;51.554;7.812;2023-07-20T07:02:35;100956.41;;;16.87;100.00
78198;BME280;67472;51.554;7.812;2023-07-20T07:05:21;100953.94;;;16.94;100.00
78198;BME280;67472;51.554;7.812;2023-07-20T07:08:08;100960.28;;;17.51;100.00
78198;BME280;67472;51.554;7.812;2023-07-20T07:10:56;100948.81;;;17.83;100.00
78198;BME280;67472;51.554;7.812;2023-07-20T07:13:42;100903.97;;;18.33;100.00
78198;BME280;67472;51.554;7.812;2023-07-20T07:16:34;100851.13;;;18.82;100.00
78198;BME280;67472;51.554;7.812;2023-07-20T07:19:21;100817.50;;;18.80;100.00
78198;BME280;67472;51.554;7.812;2023-07-20T07:22:08;100782.38;;;18.44;100.00
78198;BME280;67472;51.554;7.812;2023-07-20T07:24:55;100776.53;;;18.79;100.00
78198;BME280;67472;51.554;7.812;2023-07-20T07:27:43;100775.88;;;19.00;100.00
78198;BME280;67472;51.554;7.812;2023-07-20T07:30:30;100765.66;;;19.03;100.00
78198;BME280;67472;51.554;7.812;2023-07-20T07:33:16;100764.41;;;18.91;100.00
78198;BME280;67472;51.554;7.812;2023-07-20T07:36:03;100767.53;;;18.41;100.00
78198;BME280;67472;51.554;7.812;2023-07-20T07:38:50;100782.03;;;18.47;100.00
78198;BME280;67472;51.554;7.812;2023-07-20T07:41:36;100789.28;;;18.38;100.00
78198;BME280;67472;51.554;7.812;2023-07-20T07:44:24;100787.78;;;18.36;100.00
78198;BME280;67472;51.554;7.812;2023-07-20T07:47:12;100773.19;;;18.54;100.00
78198;BME280;67472;51.554;7.812;2023-07-20T07:49:59;100766.53;;;18.73;100.00
78198;BME280;67472;51.554;7.812;2023-07-20T07:52:45;100751.94;;;18.14;100.00
78198;BME280;67472;51.554;7.812;2023-07-20T07:55:32;100766.91;;;17.92;100.00
78198;BME280;67472;51.554;7.812;2023-07-20T07:58:18;100764.25;;;17.76;100.00
78198;BME280;67472;51.554;7.812;2023-07-20T08:01:06;100771.47;;;17.76;100.00
78198;BME280;67472;51.554;7.812;2023-07-20T08:03:52;100768.63;;;18.24;100.00
78198;BME280;67472;51.554;7.812;2023-07-20T08:06:40;100754.06;;;18.57;100.00
78198;BME280;67472;51.554;7.812;2023-07-20T08:09:26;100753.63;;;18.54;100.00
78198;BME280;67472;51.554;7.812;2023-07-20T08:12:13;100758.00;;;18.70;100.00
78198;BME280;67472;51.554;7.812;2023-07-20T08:15:03;100753.16;;;18.73;100.00
78198;BME280;67472;51.554;7.812;2023-07-20T08:17:52;100733.84;;;18.55;100.00
78198;BME280;67472;51.554;7.812;2023-07-20T08:20:38;100737.69;;;19.06;100.00
78198;BME280;67472;51.554;7.812;2023-07-20T08:23:24;100678.94;;;18.67;100.00
78198;BME280;67472;51.554;7.812;2023-07-20T08:26:12;100701.91;;;18.31;100.00
78198;BME280;67472;51.554;7.812;2023-07-20T08:28:58;100718.06;;;18.06;100.00
78198;BME280;67472;51.554;7.812;2023-07-20T08:31:45;100730.69;;;18.21;100.00
78198;BME280;67472;51.554;7.812;2023-07-20T08:34:33;100719.88;;;18.45;100.00
78198;BME280;67472;51.554;7.812;2023-07-20T08:37:19;100701.78;;;19.15;100.00
78198;BME280;67472;51.554;7.812;2023-07-20T08:40:07;100698.25;;;19.81;100.00
78198;BME280;67472;51.554;7.812;2023-07-20T08:42:55;100681.38;;;20.52;100.00
78198;BME280;67472;51.554;7.812;2023-07-20T08:45:44;100636.19;;;20.56;100.00
78198;BME280;67472;51.554;7.812;2023-07-20T08:48:33;100630.09;;;20.90;100.00
78198;BME280;67472;51.554;7.812;2023-07-20T08:51:21;100620.38;;;20.89;100.00
78198;BME280;67472;51.554;7.812;2023-07-20T08:54:08;100617.16;;;20.51;100.00
78198;BME280;67472;51.554;7.812;2023-07-20T08:56:56;100607.19;;;20.66;100.00
78198;BME280;67472;51.554;7.812;2023-07-20T08:59:43;100628.41;;;20.40;100.00
78198;BME280;67472;51.554;7.812;2023-07-20T09:02:33;100613.78;;;20.42;100.00
78198;BME280;67472;51.554;7.812;2023-07-20T09:05:23;100619.16;;;20.06;100.00
78198;BME280;67472;51.554;7.812;2023-07-20T09:08:11;100632.41;;;19.05;100.00
78198;BME280;67472;51.554;7.812;2023-07-20T09:10:58;100636.94;;;18.45;100.00
78198;BME280;67472;51.554;7.812;2023-07-20T09:13:44;100644.06;;;19.27;100.00
78198;BME280;67472;51.554;7.812;2023-07-20T09:16:32;100608.72;;;19.32;100.00
78198;BME280;67472;51.554;7.812;2023-07-20T09:19:18;100619.59;;;20.10;100.00
78198;BME280;67472;51.554;7.812;2023-07-20T09:22:05;100606.09;;;21.09;100.00
78198;BME280;67472;51.554;7.812;2023-07-20T09:24:53;100593.31;;;21.52;100.00
78198;BME280;67472;51.554;7.812;2023-07-20T09:27:41;100598.06;;;21.57;100.00
78198;BME280;67472;51.554;7.812;2023-07-20T09:30:29;100597.53;;;21.68;100.00
78198;BME280;67472;51.554;7.812;2023-07-20T09:33:19;100571.19;;;21.57;100.00
78198;BME280;67472;51.554;7.812;2023-07-20T09:36:05;100589.41;;;21.55;100.00
78198;BME280;67472;51.554;7.812;2023-07-20T09:38:51;100604.56;;;21.00;100.00
78198;BME280;67472;51.554;7.812;2023-07-20T09:41:42;100631.09;;;20.04;100.00
78198;BME280;67472;51.554;7.812;2023-07-20T09:44:28;100635.47;;;19.90;100.00
78198;BME280;67472;51.554;7.812;2023-07-20T09:47:21;100636.34;;;19.76;100.00
78198;BME280;67472;51.554;7.812;2023-07-20T09:50:08;100624.38;;;20.71;100.00
78198;BME280;67472;51.554;7.812;2023-07-20T09:52:56;100587.56;;;20.93;100.00
78198;BME280;67472;51.554;7.812;2023-07-20T09:55:44;100597.50;;;21.61;100.00
78198;BME280;67472;51.554;7.812;2023-07-20T09:58:33;100597.56;;;21.81;100.00
78198;BME280;67472;51.554;7.812;2023-07-20T10:01:21;100585.69;;;21.15;100.00
78198;BME280;67472;51.554;7.812;2023-07-20T10:04:08;100588.22;;;20.95;100.00
78198;BME280;67472;51.554;7.812;2023-07-20T10:06:58;100620.72;;;21.07;100.00
78198;BME280;67472;51.554;7.812;2023-07-20T10:09:46;100591.91;;;21.22;100.00
78198;BME280;67472;51.554;7.812;2023-07-20T10:12:34;100565.94;;;21.35;100.00
78198;BME280;67472;51.554;7.812;2023-07-20T10:15:27;100601.47;;;21.03;100.00
78198;BME280;67472;51.554;7.812;2023-07-20T10:18:18;100632.66;;;20.76;100.00
78198;BME280;67472;51.554;7.812;2023-07-20T10:21:09;100631.63;;;20.14;100.00
78198;BME280;67472;51.554;7.812;2023-07-20T10:23:56;100609.31;;;20.98;100.00
78198;BME280;67472;51.554;7.812;2023-07-20T10:26:43;100594.84;;;21.68;100.00
78198;BME280;67472;51.554;7.812;2023-07-20T10:29:30;100591.91;;;22.23;100.00
78198;BME280;67472;51.554;7.812;2023-07-20T10:32:19;100565.03;;;22.95;93.57
78198;BME280;67472;51.554;7.812;2023-07-20T10:35:13;100534.59;;;23.59;83.61
78198;BME280;67472;51.554;7.812;2023-07-20T10:38:03;100501.91;;;23.29;74.63
78198;BME280;67472;51.554;7.812;2023-07-20T10:40:56;100528.09;;;23.67;77.61
78198;BME280;67472;51.554;7.812;2023-07-20T10:43:42;100491.63;;;23.06;72.26
78198;BME280;67472;51.554;7.812;2023-07-20T10:46:42;100564.22;;;22.75;84.83
78198;BME280;67472;51.554;7.812;2023-07-20T10:49:32;100567.25;;;23.25;90.33
78198;BME280;67472;51.554;7.812;2023-07-20T10:52:20;100538.88;;;23.67;83.40
78198;BME280;67472;51.554;7.812;2023-07-20T10:55:14;100508.88;;;23.56;73.99
78198;BME280;67472;51.554;7.812;2023-07-20T10:58:07;100546.00;;;22.84;78.92
78198;BME280;67472;51.554;7.812;2023-07-20T11:01:03;100497.50;;;22.18;71.34
78198;BME280;67472;51.554;7.812;2023-07-20T11:03:51;100529.59;;;22.59;76.96
78198;BME280;67472;51.554;7.812;2023-07-20T11:06:44;100502.09;;;23.41;70.41
78198;BME280;67472;51.554;7.812;2023-07-20T11:09:34;100481.13;;;24.37;67.72
78198;BME280;67472;51.554;7.812;2023-07-20T11:12:21;100503.31;;;23.45;69.09
78198;BME280;67472;51.554;7.812;2023-07-20T11:15:08;100519.06;;;22.64;70.99
78198;BME280;67472;51.554;7.812;2023-07-20T11:18:11;100562.94;;;22.32;79.17
78198;BME280;67472;51.554;7.812;2023-07-20T11:20:57;100570.59;;;22.41;82.12
78198;BME280;67472;51.554;7.812;2023-07-20T11:23:47;100543.28;;;22.71;78.10
78198;BME280;67472;51.554;7.812;2023-07-20T11:26:43;100527.56;;;22.81;75.16
78198;BME280;67472;51.554;7.812;2023-07-20T11:29:30;100519.66;;;22.73;73.77
78198;BME280;67472;51.554;7.812;2023-07-20T11:32:20;100515.84;;;23.13;71.87
78198;BME280;67472;51.554;7.812;2023-07-20T11:35:12;100505.69;;;23.15;70.11
78198;BME280;67472;51.554;7.812;2023-07-20T11:37:59;100491.47;;;23.84;67.08
78198;BME280;67472;51.554;7.812;2023-07-20T11:40:47;100431.94;;;24.10;61.95
78198;BME280;67472;51.554;7.812;2023-07-20T11:43:34;100470.44;;;23.68;64.71
78198;BME280;67472;51.554;7.812;2023-07-20T11:46:21;100503.69;;;23.48;68.29
78198;BME280;67472;51.554;7.812;2023-07-20T11:49:08;100479.38;;;23.61;65.22
78198;BME280;67472;51.554;7.812;2023-07-20T11:51:56;100467.59;;;24.43;64.24
78198;BME280;67472;51.554;7.812;2023-07-20T11:54:43;100452.72;;;24.34;62.32
78198;BME280;67472;51.554;7.812;2023-07-20T11:57:31;100474.94;;;24.54;64.79
78198;BME280;67472;51.554;7.812;2023-07-20T12:00:18;100465.06;;;24.66;62.54
78198;BME280;67472;51.554;7.812;2023-07-20T12:03:06;100451.66;;;25.44;61.18
78198;BME280;67472;51.554;7.812;2023-07-20T12:05:52;100479.66;;;25.20;63.41
78198;BME280;67472;51.554;7.812;2023-07-20T12:08:39;100494.25;;;24.58;66.79
78198;BME280;67472;51.554;7.812;2023-07-20T12:11:33;100455.41;;;23.78;62.56
78198;BME280;67472;51.554;7.812;2023-07-20T12:14:25;100482.41;;;22.37;65.21
78198;BME280;67472;51.554;7.812;2023-07-20T12:17:13;100484.59;;;22.99;64.56
78198;BME280;67472;51.554;7.812;2023-07-20T12:19:59;100438.09;;;22.39;60.62
78198;BME280;67472;51.554;7.812;2023-07-20T12:22:45;100481.03;;;23.12;62.93
78198;BME280;67472;51.554;7.812;2023-07-20T12:25:37;100466.47;;;23.70;62.06
78198;BME280;67472;51.554;7.812;2023-07-20T12:28:25;100441.97;;;24.28;59.23
78198;BME280;67472;51.554;7.812;2023-07-20T12:31:12;100407.69;;;24.89;55.68
78198;BME280;67472;51.554;7.812;2023-07-20T12:33:58;100379.19;;;25.35;52.86
78198;BME280;67472;51.554;7.812;2023-07-20T12:36:45;100386.34;;;25.29;52.77
78198;BME280;67472;51.554;7.812;2023-07-20T12:39:31;100440.97;;;25.19;56.73
78198;BME280;67472;51.554;7.812;2023-07-20T12:42:18;100395.56;;;24.73;52.98
78198;BME280;67472;51.554;7.812;2023-07-20T12:45:05;100393.63;;;24.62;52.65
78198;BME280;67472;51.554;7.812;2023-07-20T12:47:53;100446.63;;;24.82;56.87
78198;BME280;67472;51.554;7.812;2023-07-20T12:50:40;100402.75;;;25.16;53.42
78198;BME280;67472;51.554;7.812;2023-07-20T12:53:26;100404.09;;;24.70;54.37
78198;BME280;67472;51.554;7.812;2023-07-20T12:56:12;100438.75;;;24.55;57.21
78198;BME280;67472;51.554;7.812;2023-07-20T12:58:59;100423.88;;;24.89;56.30
78198;BME280;67472;51.554;7.812;2023-07-20T13:01:47;100439.28;;;25.66;57.77
78198;BME280;67472;51.554;7.812;2023-07-20T13:04:35;100384.22;;;25.31;52.63
78198;BME280;67472;51.554;7.812;2023-07-20T13:07:29;100394.19;;;25.19;52.67
78198;BME280;67472;51.554;7.812;2023-07-20T13:10:16;100406.59;;;24.72;53.62
78198;BME280;67472;51.554;7.812;2023-07-20T13:13:03;100373.72;;;25.23;50.34
78198;BME280;67472;51.554;7.812;2023-07-20T13:15:49;100433.41;;;25.10;56.25
78198;BME280;67472;51.554;7.812;2023-07-20T13:18:36;100431.56;;;25.81;55.25
78198;BME280;67472;51.554;7.812;2023-07-20T13:21:24;100383.88;;;25.57;51.08
78198;BME280;67472;51.554;7.812;2023-07-20T13:24:10;100423.56;;;25.15;55.39
78198;BME280;67472;51.554;7.812;2023-07-20T13:26:56;100411.50;;;25.29;54.47
78198;BME280;67472;51.554;7.812;2023-07-20T13:29:42;100394.53;;;25.22;52.51
78198;BME280;67472;51.554;7.812;2023-07-20T13:32:29;100395.81;;;25.20;51.85
78198;BME280;67472;51.554;7.812;2023-07-20T13:35:15;100354.81;;;24.93;48.88
78198;BME280;67472;51.554;7.812;2023-07-20T13:38:03;100378.38;;;24.50;50.11
78198;BME280;67472;51.554;7.812;2023-07-20T13:40:49;100400.13;;;23.87;51.21
78198;BME280;67472;51.554;7.812;2023-07-20T13:43:35;100398.91;;;24.33;51.28
78198;BME280;67472;51.554;7.812;2023-07-20T13:46:21;100379.03;;;24.27;49.81
78198;BME280;67472;51.554;7.812;2023-07-20T13:49:07;100393.09;;;24.72;50.41
78198;BME280;67472;51.554;7.812;2023-07-20T13:51:55;100433.09;;;25.18;53.97
78198;BME280;67472;51.554;7.812;2023-07-20T13:54:43;100417.06;;;25.64;51.91
78198;BME280;67472;51.554;7.812;2023-07-20T13:57:29;100392.00;;;25.69;48.92
78198;BME280;67472;51.554;7.812;2023-07-20T14:00:16;100409.16;;;26.16;51.26
78198;BME280;67472;51.554;7.812;2023-07-20T14:03:03;100356.84;;;25.92;45.90
78198;BME280;67472;51.554;7.812;2023-07-20T14:05:50;100386.81;;;25.56;49.53
78198;BME280;67472;51.554;7.812;2023-07-20T14:08:36;100377.53;;;24.67;48.82
78198;BME280;67472;51.554;7.812;2023-07-20T14:11:24;100403.09;;;24.90;51.96
78198;BME280;67472;51.554;7.812;2023-07-20T14:14:10;100374.34;;;25.37;48.72
78198;BME280;67472;51.554;7.812;2023-07-20T14:16:57;100367.03;;;25.55;47.42
78198;BME280;67472;51.554;7.812;2023-07-20T14:19:42;100359.97;;;25.13;46.99
78198;BME280;67472;51.554;7.812;2023-07-20T14:22:29;100378.25;;;24.81;47.43
78198;BME280;67472;51.554;7.812;2023-07-20T14:25:16;100375.97;;;24.60;48.11
78198;BME280;67472;51.554;7.812;2023-07-20T14:28:04;100401.25;;;24.47;51.19
78198;BME280;67472;51.554;7.812;2023-07-20T14:30:50;100383.53;;;24.33;49.34
78198;BME280;67472;51.554;7.812;2023-07-20T14:33:37;100389.69;;;24.58;50.73